sensor_id;sensor_type;location;lat;lon;timestamp;P1;durP1;ratioP1;P2;durP2;ratioP2
55493;SDS011;41355;50.390;19.096;2022-09-09T00:01:51;30.60;;;15.73;;
55493;SDS011;41355;50.390;19.096;2022-09-09T00:04:26;29.85;;;16.85;;
55493;SDS011;41355;50.390;19.096;2022-09-09T00:09:24;36.83;;;20.65;;
55493;SDS011;41355;50.390;19.096;2022-09-09T00:11:53;32.95;;;19.90;;
55493;SDS011;41355;50.390;19.096;2022-09-09T00:17:00;45.47;;;21.38;;
55493;SDS011;41355;50.390;19.096;2022-09-09T00:22:04;41.10;;;19.30;;
55493;SDS011;41355;50.390;19.096;2022-09-09T00:24:41;35.67;;;18.95;;
55493;SDS011;41355;50.390;19.096;2022-09-09T00:27:29;35.30;;;18.05;;
55493;SDS011;41355;50.390;19.096;2022-09-09T00:29:58;33.75;;;17.40;;
55493;SDS011;41355;50.390;19.096;2022-09-09T00:32:27;31.83;;;16.30;;
55493;SDS011;41355;50.390;19.096;2022-09-09T00:34:55;30.88;;;15.07;;
55493;SDS011;41355;50.390;19.096;2022-09-09T00:37:22;30.38;;;15.88;;
55493;SDS011;41355;50.390;19.096;2022-09-09T00:39:51;27.30;;;14.25;;
55493;SDS011;41355;50.390;19.096;2022-09-09T00:47:46;25.98;;;14.45;;
55493;SDS011;41355;50.390;19.096;2022-09-09T00:53:10;27.67;;;13.50;;
55493;SDS011;41355;50.390;19.096;2022-09-09T00:58:25;27.20;;;13.40;;
55493;SDS011;41355;50.390;19.096;2022-09-09T01:00:56;25.58;;;13.35;;
55493;SDS011;41355;50.390;19.096;2022-09-09T01:11:25;24.35;;;13.48;;
55493;SDS011;41355;50.390;19.096;2022-09-09T01:16:50;22.58;;;12.63;;
55493;SDS011;41355;50.390;19.096;2022-09-09T01:19:24;25.05;;;13.68;;
55493;SDS011;41355;50.390;19.096;2022-09-09T01:26:50;32.30;;;15.82;;
55493;SDS011;41355;50.390;19.096;2022-09-09T01:29:18;26.52;;;14.52;;
55493;SDS011;41355;50.390;19.096;2022-09-09T01:31:55;26.90;;;15.70;;
55493;SDS011;41355;50.390;19.096;2022-09-09T01:34:23;30.10;;;17.02;;
55493;SDS011;41355;50.390;19.096;2022-09-09T01:36:55;32.08;;;17.60;;
55493;SDS011;41355;50.390;19.096;2022-09-09T01:39:23;32.20;;;16.38;;
55493;SDS011;41355;50.390;19.096;2022-09-09T01:41:49;30.83;;;18.42;;
55493;SDS011;41355;50.390;19.096;2022-09-09T01:44:15;39.13;;;20.90;;
55493;SDS011;41355;50.390;19.096;2022-09-09T01:46:43;43.15;;;21.63;;
55493;SDS011;41355;50.390;19.096;2022-09-09T01:49:09;46.95;;;22.55;;
55493;SDS011;41355;50.390;19.096;2022-09-09T01:51:36;47.00;;;22.55;;
55493;SDS011;41355;50.390;19.096;2022-09-09T01:54:03;50.25;;;22.67;;
55493;SDS011;41355;50.390;19.096;2022-09-09T01:56:53;46.55;;;25.00;;
55493;SDS011;41355;50.390;19.096;2022-09-09T01:59:41;47.72;;;23.33;;
55493;SDS011;41355;50.390;19.096;2022-09-09T02:02:18;53.63;;;24.88;;
55493;SDS011;41355;50.390;19.096;2022-09-09T02:04:48;60.65;;;26.58;;
55493;SDS011;41355;50.390;19.096;2022-09-09T02:09:52;76.53;;;31.10;;
55493;SDS011;41355;50.390;19.096;2022-09-09T02:12:22;73.07;;;30.55;;
55493;SDS011;41355;50.390;19.096;2022-09-09T02:14:52;65.38;;;28.58;;
55493;SDS011;41355;50.390;19.096;2022-09-09T02:17:22;68.35;;;30.17;;
55493;SDS011;41355;50.390;19.096;2022-09-09T02:19:56;76.32;;;33.88;;
55493;SDS011;41355;50.390;19.096;2022-09-09T02:22:24;68.38;;;30.55;;
55493;SDS011;41355;50.390;19.096;2022-09-09T02:24:51;79.40;;;30.02;;
55493;SDS011;41355;50.390;19.096;2022-09-09T02:27:20;83.25;;;31.80;;
55493;SDS011;41355;50.390;19.096;2022-09-09T02:29:46;82.00;;;30.88;;
55493;SDS011;41355;50.390;19.096;2022-09-09T02:32:17;77.75;;;29.83;;
55493;SDS011;41355;50.390;19.096;2022-09-09T02:34:45;78.13;;;30.30;;
55493;SDS011;41355;50.390;19.096;2022-09-09T02:37:13;73.13;;;29.38;;
55493;SDS011;41355;50.390;19.096;2022-09-09T02:39:41;72.88;;;28.48;;
55493;SDS011;41355;50.390;19.096;2022-09-09T02:42:07;68.38;;;27.58;;
55493;SDS011;41355;50.390;19.096;2022-09-09T02:44:33;79.95;;;30.58;;
55493;SDS011;41355;50.390;19.096;2022-09-09T02:47:07;77.85;;;28.85;;
55493;SDS011;41355;50.390;19.096;2022-09-09T02:49:40;82.68;;;28.20;;
55493;SDS011;41355;50.390;19.096;2022-09-09T02:52:11;85.03;;;31.88;;
55493;SDS011;41355;50.390;19.096;2022-09-09T02:54:40;77.10;;;28.67;;
55493;SDS011;41355;50.390;19.096;2022-09-09T02:59:57;83.05;;;28.45;;
55493;SDS011;41355;50.390;19.096;2022-09-09T03:02:23;79.32;;;27.10;;
55493;SDS011;41355;50.390;19.096;2022-09-09T03:04:51;66.57;;;27.35;;
55493;SDS011;41355;50.390;19.096;2022-09-09T03:07:20;66.25;;;25.90;;
55493;SDS011;41355;50.390;19.096;2022-09-09T03:09:46;57.45;;;24.25;;
55493;SDS011;41355;50.390;19.096;2022-09-09T03:12:13;60.65;;;24.38;;
55493;SDS011;41355;50.390;19.096;2022-09-09T03:14:39;56.08;;;22.80;;
55493;SDS011;41355;50.390;19.096;2022-09-09T03:17:05;48.53;;;21.33;;
55493;SDS011;41355;50.390;19.096;2022-09-09T03:19:32;42.92;;;20.95;;
55493;SDS011;41355;50.390;19.096;2022-09-09T03:21:59;44.22;;;19.58;;
55493;SDS011;41355;50.390;19.096;2022-09-09T03:24:25;39.08;;;18.83;;
55493;SDS011;41355;50.390;19.096;2022-09-09T03:26:51;44.03;;;20.30;;
55493;SDS011;41355;50.390;19.096;2022-09-09T03:29:17;41.28;;;20.60;;
55493;SDS011;41355;50.390;19.096;2022-09-09T03:31:43;37.70;;;18.73;;
55493;SDS011;41355;50.390;19.096;2022-09-09T03:34:10;35.65;;;18.27;;
55493;SDS011;41355;50.390;19.096;2022-09-09T03:36:36;38.70;;;18.85;;
55493;SDS011;41355;50.390;19.096;2022-09-09T03:39:02;34.13;;;18.25;;
55493;SDS011;41355;50.390;19.096;2022-09-09T03:41:29;36.88;;;17.17;;
55493;SDS011;41355;50.390;19.096;2022-09-09T03:43:55;35.85;;;17.92;;
55493;SDS011;41355;50.390;19.096;2022-09-09T03:46:21;36.28;;;17.50;;
55493;SDS011;41355;50.390;19.096;2022-09-09T03:48:48;36.35;;;18.63;;
55493;SDS011;41355;50.390;19.096;2022-09-09T03:51:14;32.97;;;17.17;;
55493;SDS011;41355;50.390;19.096;2022-09-09T03:53:41;37.10;;;17.88;;
55493;SDS011;41355;50.390;19.096;2022-09-09T03:56:08;39.10;;;17.98;;
55493;SDS011;41355;50.390;19.096;2022-09-09T03:58:34;34.10;;;17.23;;
55493;SDS011;41355;50.390;19.096;2022-09-09T04:01:05;42.75;;;19.65;;
55493;SDS011;41355;50.390;19.096;2022-09-09T04:03:31;35.10;;;18.73;;
55493;SDS011;41355;50.390;19.096;2022-09-09T04:05:58;38.35;;;18.77;;
55493;SDS011;41355;50.390;19.096;2022-09-09T04:08:24;38.47;;;18.70;;
55493;SDS011;41355;50.390;19.096;2022-09-09T04:10:50;35.40;;;17.85;;
55493;SDS011;41355;50.390;19.096;2022-09-09T04:13:17;37.22;;;17.85;;
55493;SDS011;41355;50.390;19.096;2022-09-09T04:15:48;37.20;;;17.83;;
55493;SDS011;41355;50.390;19.096;2022-09-09T04:18:16;32.58;;;16.70;;
55493;SDS011;41355;50.390;19.096;2022-09-09T04:20:42;39.78;;;17.55;;
55493;SDS011;41355;50.390;19.096;2022-09-09T04:23:08;34.60;;;16.88;;
55493;SDS011;41355;50.390;19.096;2022-09-09T04:25:34;35.67;;;17.98;;
55493;SDS011;41355;50.390;19.096;2022-09-09T04:28:00;34.80;;;17.02;;
55493;SDS011;41355;50.390;19.096;2022-09-09T04:30:27;33.60;;;16.88;;
55493;SDS011;41355;50.390;19.096;2022-09-09T04:32:53;40.47;;;17.95;;
55493;SDS011;41355;50.390;19.096;2022-09-09T04:35:19;35.45;;;17.35;;
55493;SDS011;41355;50.390;19.096;2022-09-09T04:37:46;44.80;;;19.40;;
55493;SDS011;41355;50.390;19.096;2022-09-09T04:40:13;40.90;;;18.30;;
55493;SDS011;41355;50.390;19.096;2022-09-09T04:42:40;38.53;;;18.60;;
55493;SDS011;41355;50.390;19.096;2022-09-09T04:45:08;44.30;;;19.48;;
55493;SDS011;41355;50.390;19.096;2022-09-09T04:47:36;40.45;;;19.25;;
55493;SDS011;41355;50.390;19.096;2022-09-09T04:50:03;46.58;;;19.92;;
55493;SDS011;41355;50.390;19.096;2022-09-09T04:52:29;48.88;;;21.80;;
55493;SDS011;41355;50.390;19.096;2022-09-09T04:54:55;46.33;;;19.25;;
55493;SDS011;41355;50.390;19.096;2022-09-09T04:57:21;49.92;;;20.25;;
55493;SDS011;41355;50.390;19.096;2022-09-09T04:59:47;46.85;;;21.55;;
55493;SDS011;41355;50.390;19.096;2022-09-09T05:02:13;45.05;;;18.33;;
55493;SDS011;41355;50.390;19.096;2022-09-09T05:04:39;42.95;;;20.15;;
55493;SDS011;41355;50.390;19.096;2022-09-09T05:07:05;46.00;;;20.10;;
55493;SDS011;41355;50.390;19.096;2022-09-09T05:09:31;55.22;;;23.30;;
55493;SDS011;41355;50.390;19.096;2022-09-09T05:11:57;46.90;;;20.48;;
55493;SDS011;41355;50.390;19.096;2022-09-09T05:14:24;52.88;;;20.50;;
55493;SDS011;41355;50.390;19.096;2022-09-09T05:16:51;57.50;;;24.38;;
55493;SDS011;41355;50.390;19.096;2022-09-09T05:19:17;54.47;;;23.13;;
55493;SDS011;41355;50.390;19.096;2022-09-09T05:21:44;55.15;;;22.83;;
55493;SDS011;41355;50.390;19.096;2022-09-09T05:24:11;55.42;;;23.88;;
55493;SDS011;41355;50.390;19.096;2022-09-09T05:26:37;90.22;;;34.50;;
55493;SDS011;41355;50.390;19.096;2022-09-09T05:29:03;103.70;;;38.42;;
55493;SDS011;41355;50.390;19.096;2022-09-09T05:31:29;82.75;;;31.75;;
55493;SDS011;41355;50.390;19.096;2022-09-09T05:33:55;73.75;;;27.75;;
55493;SDS011;41355;50.390;19.096;2022-09-09T05:36:21;71.55;;;28.58;;
55493;SDS011;41355;50.390;19.096;2022-09-09T05:38:48;81.55;;;31.25;;
55493;SDS011;41355;50.390;19.096;2022-09-09T05:41:15;130.18;;;43.08;;
55493;SDS011;41355;50.390;19.096;2022-09-09T05:43:42;101.18;;;36.40;;
55493;SDS011;41355;50.390;19.096;2022-09-09T05:46:12;77.25;;;28.83;;
55493;SDS011;41355;50.390;19.096;2022-09-09T05:48:42;83.55;;;32.60;;
55493;SDS011;41355;50.390;19.096;2022-09-09T05:51:13;71.32;;;28.95;;
55493;SDS011;41355;50.390;19.096;2022-09-09T05:53:43;72.18;;;29.02;;
55493;SDS011;41355;50.390;19.096;2022-09-09T05:56:16;75.97;;;30.00;;
55493;SDS011;41355;50.390;19.096;2022-09-09T05:58:43;77.43;;;32.42;;
55493;SDS011;41355;50.390;19.096;2022-09-09T06:01:10;65.78;;;28.92;;
55493;SDS011;41355;50.390;19.096;2022-09-09T06:03:37;77.00;;;29.80;;
55493;SDS011;41355;50.390;19.096;2022-09-09T06:06:05;73.40;;;29.90;;
55493;SDS011;41355;50.390;19.096;2022-09-09T06:08:32;57.83;;;26.02;;
55493;SDS011;41355;50.390;19.096;2022-09-09T06:11:02;73.93;;;29.23;;
55493;SDS011;41355;50.390;19.096;2022-09-09T06:13:28;69.22;;;27.67;;
55493;SDS011;41355;50.390;19.096;2022-09-09T06:15:54;56.92;;;25.50;;
55493;SDS011;41355;50.390;19.096;2022-09-09T06:18:21;55.00;;;24.13;;
55493;SDS011;41355;50.390;19.096;2022-09-09T06:20:54;57.33;;;21.63;;
55493;SDS011;41355;50.390;19.096;2022-09-09T06:23:20;52.58;;;24.00;;
55493;SDS011;41355;50.390;19.096;2022-09-09T06:25:46;62.35;;;24.98;;
55493;SDS011;41355;50.390;19.096;2022-09-09T06:28:12;43.97;;;19.45;;
55493;SDS011;41355;50.390;19.096;2022-09-09T06:30:38;39.75;;;18.98;;
55493;SDS011;41355;50.390;19.096;2022-09-09T06:33:05;43.30;;;19.05;;
55493;SDS011;41355;50.390;19.096;2022-09-09T06:35:31;48.10;;;21.15;;
55493;SDS011;41355;50.390;19.096;2022-09-09T06:37:57;40.45;;;19.55;;
55493;SDS011;41355;50.390;19.096;2022-09-09T06:40:24;54.47;;;22.73;;
55493;SDS011;41355;50.390;19.096;2022-09-09T06:42:50;39.38;;;19.33;;
55493;SDS011;41355;50.390;19.096;2022-09-09T06:45:16;35.55;;;17.92;;
55493;SDS011;41355;50.390;19.096;2022-09-09T06:47:43;33.13;;;16.73;;
55493;SDS011;41355;50.390;19.096;2022-09-09T06:50:09;30.45;;;14.98;;
55493;SDS011;41355;50.390;19.096;2022-09-09T06:52:36;44.67;;;19.25;;
55493;SDS011;41355;50.390;19.096;2022-09-09T06:55:02;30.80;;;16.48;;
55493;SDS011;41355;50.390;19.096;2022-09-09T06:57:28;33.95;;;16.17;;
55493;SDS011;41355;50.390;19.096;2022-09-09T06:59:55;25.63;;;13.93;;
55493;SDS011;41355;50.390;19.096;2022-09-09T07:02:21;29.77;;;14.90;;
55493;SDS011;41355;50.390;19.096;2022-09-09T07:04:47;21.55;;;12.43;;
55493;SDS011;41355;50.390;19.096;2022-09-09T07:07:16;20.00;;;12.20;;
55493;SDS011;41355;50.390;19.096;2022-09-09T07:09:42;17.90;;;10.60;;
55493;SDS011;41355;50.390;19.096;2022-09-09T07:12:10;19.58;;;10.63;;
55493;SDS011;41355;50.390;19.096;2022-09-09T07:14:37;24.20;;;12.88;;
55493;SDS011;41355;50.390;19.096;2022-09-09T07:17:04;18.25;;;9.15;;
55493;SDS011;41355;50.390;19.096;2022-09-09T07:19:30;16.15;;;8.43;;
55493;SDS011;41355;50.390;19.096;2022-09-09T07:21:56;15.18;;;8.27;;
55493;SDS011;41355;50.390;19.096;2022-09-09T07:24:22;13.80;;;7.68;;
55493;SDS011;41355;50.390;19.096;2022-09-09T07:26:49;11.48;;;7.18;;
55493;SDS011;41355;50.390;19.096;2022-09-09T07:29:15;10.73;;;6.20;;
55493;SDS011;41355;50.390;19.096;2022-09-09T07:31:41;15.65;;;6.57;;
55493;SDS011;41355;50.390;19.096;2022-09-09T07:34:07;28.27;;;11.07;;
55493;SDS011;41355;50.390;19.096;2022-09-09T07:36:37;38.05;;;12.90;;
55493;SDS011;41355;50.390;19.096;2022-09-09T07:39:08;27.55;;;9.82;;
55493;SDS011;41355;50.390;19.096;2022-09-09T07:41:35;13.10;;;6.43;;
55493;SDS011;41355;50.390;19.096;2022-09-09T07:44:06;10.77;;;6.25;;
55493;SDS011;41355;50.390;19.096;2022-09-09T07:46:32;10.98;;;6.18;;
55493;SDS011;41355;50.390;19.096;2022-09-09T07:48:59;12.45;;;6.35;;
55493;SDS011;41355;50.390;19.096;2022-09-09T07:51:26;10.50;;;5.68;;
55493;SDS011;41355;50.390;19.096;2022-09-09T07:53:57;11.15;;;5.68;;
55493;SDS011;41355;50.390;19.096;2022-09-09T07:56:24;9.70;;;5.57;;
55493;SDS011;41355;50.390;19.096;2022-09-09T07:58:51;15.23;;;6.32;;
55493;SDS011;41355;50.390;19.096;2022-09-09T08:01:21;19.50;;;7.22;;
55493;SDS011;41355;50.390;19.096;2022-09-09T08:03:52;11.27;;;5.13;;
55493;SDS011;41355;50.390;19.096;2022-09-09T08:06:18;11.50;;;5.70;;
55493;SDS011;41355;50.390;19.096;2022-09-09T08:08:44;10.80;;;5.35;;
55493;SDS011;41355;50.390;19.096;2022-09-09T08:11:13;10.00;;;5.03;;
55493;SDS011;41355;50.390;19.096;2022-09-09T08:13:42;7.85;;;4.70;;
55493;SDS011;41355;50.390;19.096;2022-09-09T08:16:10;8.98;;;4.63;;
55493;SDS011;41355;50.390;19.096;2022-09-09T08:18:37;7.25;;;4.13;;
55493;SDS011;41355;50.390;19.096;2022-09-09T08:23:33;7.95;;;4.25;;
55493;SDS011;41355;50.390;19.096;2022-09-09T08:26:06;7.30;;;4.05;;
55493;SDS011;41355;50.390;19.096;2022-09-09T08:28:34;8.52;;;4.85;;
55493;SDS011;41355;50.390;19.096;2022-09-09T08:31:11;7.07;;;4.05;;
55493;SDS011;41355;50.390;19.096;2022-09-09T08:33:38;9.15;;;4.80;;
55493;SDS011;41355;50.390;19.096;2022-09-09T08:36:06;6.35;;;3.40;;
55493;SDS011;41355;50.390;19.096;2022-09-09T08:38:32;7.03;;;3.60;;
55493;SDS011;41355;50.390;19.096;2022-09-09T08:41:03;6.72;;;3.63;;
55493;SDS011;41355;50.390;19.096;2022-09-09T08:43:33;6.55;;;3.17;;
55493;SDS011;41355;50.390;19.096;2022-09-09T08:46:22;7.50;;;3.83;;
55493;SDS011;41355;50.390;19.096;2022-09-09T08:51:47;6.93;;;3.25;;
55493;SDS011;41355;50.390;19.096;2022-09-09T08:54:14;8.68;;;4.50;;
55493;SDS011;41355;50.390;19.096;2022-09-09T08:56:40;6.80;;;3.97;;
55493;SDS011;41355;50.390;19.096;2022-09-09T08:59:07;6.25;;;3.38;;
55493;SDS011;41355;50.390;19.096;2022-09-09T09:01:48;8.57;;;3.45;;
55493;SDS011;41355;50.390;19.096;2022-09-09T09:04:30;6.85;;;3.67;;
55493;SDS011;41355;50.390;19.096;2022-09-09T09:07:04;10.18;;;4.95;;
55493;SDS011;41355;50.390;19.096;2022-09-09T09:12:00;7.70;;;3.63;;
55493;SDS011;41355;50.390;19.096;2022-09-09T09:14:30;8.50;;;3.80;;
55493;SDS011;41355;50.390;19.096;2022-09-09T09:19:32;8.70;;;3.40;;
55493;SDS011;41355;50.390;19.096;2022-09-09T09:25:08;9.07;;;3.80;;
55493;SDS011;41355;50.390;19.096;2022-09-09T09:27:43;8.68;;;3.92;;
55493;SDS011;41355;50.390;19.096;2022-09-09T09:30:17;8.05;;;3.22;;
55493;SDS011;41355;50.390;19.096;2022-09-09T09:32:49;11.00;;;3.72;;
55493;SDS011;41355;50.390;19.096;2022-09-09T09:35:16;6.72;;;3.58;;
55493;SDS011;41355;50.390;19.096;2022-09-09T09:37:42;6.18;;;3.42;;
55493;SDS011;41355;50.390;19.096;2022-09-09T09:40:10;5.70;;;3.15;;
55493;SDS011;41355;50.390;19.096;2022-09-09T09:42:37;7.10;;;3.22;;
55493;SDS011;41355;50.390;19.096;2022-09-09T09:45:08;6.25;;;3.00;;
55493;SDS011;41355;50.390;19.096;2022-09-09T09:47:35;6.60;;;3.38;;
55493;SDS011;41355;50.390;19.096;2022-09-09T09:50:01;6.40;;;3.28;;
55493;SDS011;41355;50.390;19.096;2022-09-09T09:52:28;11.13;;;4.07;;
55493;SDS011;41355;50.390;19.096;2022-09-09T09:54:55;8.57;;;3.78;;
55493;SDS011;41355;50.390;19.096;2022-09-09T09:57:23;6.90;;;3.70;;
55493;SDS011;41355;50.390;19.096;2022-09-09T09:59:59;29.88;;;9.60;;
55493;SDS011;41355;50.390;19.096;2022-09-09T10:02:31;17.05;;;6.05;;
55493;SDS011;41355;50.390;19.096;2022-09-09T10:05:04;8.05;;;3.40;;
55493;SDS011;41355;50.390;19.096;2022-09-09T10:07:31;8.25;;;2.60;;
55493;SDS011;41355;50.390;19.096;2022-09-09T10:09:58;5.28;;;3.00;;
55493;SDS011;41355;50.390;19.096;2022-09-09T10:19:59;13.35;;;6.00;;
55493;SDS011;41355;50.390;19.096;2022-09-09T10:22:28;7.22;;;3.90;;
55493;SDS011;41355;50.390;19.096;2022-09-09T10:40:33;7.18;;;3.33;;
55493;SDS011;41355;50.390;19.096;2022-09-09T10:43:07;6.80;;;3.50;;
55493;SDS011;41355;50.390;19.096;2022-09-09T10:45:39;7.10;;;3.20;;
55493;SDS011;41355;50.390;19.096;2022-09-09T10:53:16;6.85;;;3.30;;
55493;SDS011;41355;50.390;19.096;2022-09-09T10:55:48;6.85;;;3.05;;
55493;SDS011;41355;50.390;19.096;2022-09-09T10:58:21;6.43;;;2.92;;
55493;SDS011;41355;50.390;19.096;2022-09-09T11:00:56;9.60;;;3.10;;
55493;SDS011;41355;50.390;19.096;2022-09-09T11:03:28;5.72;;;2.50;;
55493;SDS011;41355;50.390;19.096;2022-09-09T11:06:02;7.05;;;2.90;;
55493;SDS011;41355;50.390;19.096;2022-09-09T11:08:30;7.15;;;3.00;;
55493;SDS011;41355;50.390;19.096;2022-09-09T11:13:39;5.93;;;3.30;;
55493;SDS011;41355;50.390;19.096;2022-09-09T11:18:37;4.55;;;2.22;;
55493;SDS011;41355;50.390;19.096;2022-09-09T11:21:04;4.85;;;2.30;;
55493;SDS011;41355;50.390;19.096;2022-09-09T11:23:38;6.07;;;2.75;;
55493;SDS011;41355;50.390;19.096;2022-09-09T11:26:06;8.70;;;4.18;;
55493;SDS011;41355;50.390;19.096;2022-09-09T11:33:46;6.80;;;2.35;;
55493;SDS011;41355;50.390;19.096;2022-09-09T11:38:46;4.65;;;2.00;;
55493;SDS011;41355;50.390;19.096;2022-09-09T11:41:14;4.75;;;1.90;;
55493;SDS011;41355;50.390;19.096;2022-09-09T11:43:41;4.15;;;2.28;;
55493;SDS011;41355;50.390;19.096;2022-09-09T11:46:08;6.35;;;2.30;;
55493;SDS011;41355;50.390;19.096;2022-09-09T11:48:36;10.45;;;5.93;;
55493;SDS011;41355;50.390;19.096;2022-09-09T11:51:04;4.75;;;2.20;;
55493;SDS011;41355;50.390;19.096;2022-09-09T11:53:32;4.95;;;2.55;;
55493;SDS011;41355;50.390;19.096;2022-09-09T11:56:03;6.25;;;2.60;;
55493;SDS011;41355;50.390;19.096;2022-09-09T11:58:31;7.95;;;3.08;;
55493;SDS011;41355;50.390;19.096;2022-09-09T12:01:01;11.90;;;4.32;;
55493;SDS011;41355;50.390;19.096;2022-09-09T12:03:41;12.00;;;3.65;;
55493;SDS011;41355;50.390;19.096;2022-09-09T12:06:10;9.45;;;3.75;;
55493;SDS011;41355;50.390;19.096;2022-09-09T12:08:39;9.57;;;3.90;;
55493;SDS011;41355;50.390;19.096;2022-09-09T12:11:07;7.53;;;2.70;;
55493;SDS011;41355;50.390;19.096;2022-09-09T12:13:33;11.15;;;4.90;;
55493;SDS011;41355;50.390;19.096;2022-09-09T12:16:00;8.02;;;3.25;;
55493;SDS011;41355;50.390;19.096;2022-09-09T12:18:37;11.77;;;4.75;;
55493;SDS011;41355;50.390;19.096;2022-09-09T12:24:09;4.72;;;2.05;;
55493;SDS011;41355;50.390;19.096;2022-09-09T12:26:58;7.18;;;2.80;;
55493;SDS011;41355;50.390;19.096;2022-09-09T12:29:32;8.05;;;3.50;;
55493;SDS011;41355;50.390;19.096;2022-09-09T12:32:11;6.15;;;2.40;;
55493;SDS011;41355;50.390;19.096;2022-09-09T12:34:43;6.03;;;2.58;;
55493;SDS011;41355;50.390;19.096;2022-09-09T12:39:49;4.53;;;2.00;;
55493;SDS011;41355;50.390;19.096;2022-09-09T12:42:18;8.57;;;2.40;;
55493;SDS011;41355;50.390;19.096;2022-09-09T12:44:55;4.70;;;2.58;;
55493;SDS011;41355;50.390;19.096;2022-09-09T12:47:23;7.65;;;2.40;;
55493;SDS011;41355;50.390;19.096;2022-09-09T12:49:50;4.95;;;2.20;;
55493;SDS011;41355;50.390;19.096;2022-09-09T12:52:19;4.57;;;2.15;;
55493;SDS011;41355;50.390;19.096;2022-09-09T12:54:49;3.88;;;1.85;;
55493;SDS011;41355;50.390;19.096;2022-09-09T12:57:18;6.00;;;2.35;;
55493;SDS011;41355;50.390;19.096;2022-09-09T12:59:44;4.30;;;2.00;;
55493;SDS011;41355;50.390;19.096;2022-09-09T13:02:21;5.97;;;2.22;;
55493;SDS011;41355;50.390;19.096;2022-09-09T13:04:48;4.85;;;2.15;;
55493;SDS011;41355;50.390;19.096;2022-09-09T13:07:15;4.70;;;2.25;;
55493;SDS011;41355;50.390;19.096;2022-09-09T13:09:42;5.70;;;2.15;;
55493;SDS011;41355;50.390;19.096;2022-09-09T13:12:26;3.95;;;2.15;;
55493;SDS011;41355;50.390;19.096;2022-09-09T13:14:53;3.83;;;2.13;;
55493;SDS011;41355;50.390;19.096;2022-09-09T13:17:22;4.60;;;2.10;;
55493;SDS011;41355;50.390;19.096;2022-09-09T13:19:49;5.30;;;1.95;;
55493;SDS011;41355;50.390;19.096;2022-09-09T13:22:20;4.38;;;1.90;;
55493;SDS011;41355;50.390;19.096;2022-09-09T13:24:46;5.53;;;2.40;;
55493;SDS011;41355;50.390;19.096;2022-09-09T13:27:51;5.53;;;2.33;;
55493;SDS011;41355;50.390;19.096;2022-09-09T13:32:48;6.63;;;2.35;;
55493;SDS011;41355;50.390;19.096;2022-09-09T13:35:26;5.03;;;2.15;;
55493;SDS011;41355;50.390;19.096;2022-09-09T13:37:52;7.68;;;2.60;;
55493;SDS011;41355;50.390;19.096;2022-09-09T13:40:19;5.93;;;2.25;;
55493;SDS011;41355;50.390;19.096;2022-09-09T13:42:46;5.22;;;2.25;;
55493;SDS011;41355;50.390;19.096;2022-09-09T13:45:17;5.57;;;2.47;;
55493;SDS011;41355;50.390;19.096;2022-09-09T13:47:45;4.43;;;2.25;;
55493;SDS011;41355;50.390;19.096;2022-09-09T13:50:28;4.72;;;2.45;;
55493;SDS011;41355;50.390;19.096;2022-09-09T13:52:55;4.40;;;2.28;;
55493;SDS011;41355;50.390;19.096;2022-09-09T13:55:23;5.70;;;2.33;;
55493;SDS011;41355;50.390;19.096;2022-09-09T13:57:53;4.55;;;2.20;;
55493;SDS011;41355;50.390;19.096;2022-09-09T14:00:20;6.32;;;2.78;;
55493;SDS011;41355;50.390;19.096;2022-09-09T14:02:46;6.32;;;2.97;;
55493;SDS011;41355;50.390;19.096;2022-09-09T14:05:12;4.63;;;2.67;;
55493;SDS011;41355;50.390;19.096;2022-09-09T14:07:41;4.65;;;2.20;;
55493;SDS011;41355;50.390;19.096;2022-09-09T14:10:07;3.92;;;1.75;;
55493;SDS011;41355;50.390;19.096;2022-09-09T14:12:33;4.80;;;1.85;;
55493;SDS011;41355;50.390;19.096;2022-09-09T14:15:00;9.77;;;4.22;;
55493;SDS011;41355;50.390;19.096;2022-09-09T14:17:26;7.32;;;2.60;;
55493;SDS011;41355;50.390;19.096;2022-09-09T14:19:56;7.75;;;3.15;;
55493;SDS011;41355;50.390;19.096;2022-09-09T14:22:22;5.90;;;1.98;;
55493;SDS011;41355;50.390;19.096;2022-09-09T14:24:48;4.53;;;2.10;;
55493;SDS011;41355;50.390;19.096;2022-09-09T14:27:16;3.80;;;1.83;;
55493;SDS011;41355;50.390;19.096;2022-09-09T14:29:43;5.50;;;2.10;;
55493;SDS011;41355;50.390;19.096;2022-09-09T14:32:10;4.28;;;2.03;;
55493;SDS011;41355;50.390;19.096;2022-09-09T14:34:36;3.95;;;2.08;;
55493;SDS011;41355;50.390;19.096;2022-09-09T14:37:03;3.60;;;1.90;;
55493;SDS011;41355;50.390;19.096;2022-09-09T14:39:29;5.00;;;2.00;;
55493;SDS011;41355;50.390;19.096;2022-09-09T14:41:55;4.45;;;1.75;;
55493;SDS011;41355;50.390;19.096;2022-09-09T14:44:21;5.30;;;2.13;;
55493;SDS011;41355;50.390;19.096;2022-09-09T14:46:47;6.03;;;2.03;;
55493;SDS011;41355;50.390;19.096;2022-09-09T14:49:15;5.20;;;3.08;;
55493;SDS011;41355;50.390;19.096;2022-09-09T14:51:41;4.20;;;2.00;;
55493;SDS011;41355;50.390;19.096;2022-09-09T14:54:07;5.80;;;1.95;;
55493;SDS011;41355;50.390;19.096;2022-09-09T14:56:33;4.53;;;1.80;;
55493;SDS011;41355;50.390;19.096;2022-09-09T14:59:00;3.58;;;1.70;;
55493;SDS011;41355;50.390;19.096;2022-09-09T15:01:26;4.00;;;1.90;;
55493;SDS011;41355;50.390;19.096;2022-09-09T15:03:54;4.28;;;1.80;;
55493;SDS011;41355;50.390;19.096;2022-09-09T15:06:21;5.00;;;1.90;;
55493;SDS011;41355;50.390;19.096;2022-09-09T15:08:49;3.00;;;1.42;;
55493;SDS011;41355;50.390;19.096;2022-09-09T15:11:15;4.55;;;1.83;;
55493;SDS011;41355;50.390;19.096;2022-09-09T15:13:41;3.95;;;1.70;;
55493;SDS011;41355;50.390;19.096;2022-09-09T15:16:12;3.95;;;1.70;;
55493;SDS011;41355;50.390;19.096;2022-09-09T15:18:38;3.17;;;1.67;;
55493;SDS011;41355;50.390;19.096;2022-09-09T15:21:15;3.63;;;1.60;;
55493;SDS011;41355;50.390;19.096;2022-09-09T15:23:41;3.25;;;1.75;;
55493;SDS011;41355;50.390;19.096;2022-09-09T15:26:08;4.05;;;1.90;;
55493;SDS011;41355;50.390;19.096;2022-09-09T15:28:35;3.72;;;1.90;;
55493;SDS011;41355;50.390;19.096;2022-09-09T15:31:04;4.70;;;1.90;;
55493;SDS011;41355;50.390;19.096;2022-09-09T15:33:36;5.43;;;2.13;;
55493;SDS011;41355;50.390;19.096;2022-09-09T15:36:18;4.05;;;1.95;;
55493;SDS011;41355;50.390;19.096;2022-09-09T15:38:44;3.35;;;1.80;;
55493;SDS011;41355;50.390;19.096;2022-09-09T15:41:14;5.28;;;1.90;;
55493;SDS011;41355;50.390;19.096;2022-09-09T15:43:44;4.25;;;1.88;;
55493;SDS011;41355;50.390;19.096;2022-09-09T15:46:32;5.13;;;2.00;;
55493;SDS011;41355;50.390;19.096;2022-09-09T15:49:04;6.15;;;1.75;;
55493;SDS011;41355;50.390;19.096;2022-09-09T15:51:30;6.07;;;2.05;;
55493;SDS011;41355;50.390;19.096;2022-09-09T15:53:57;6.85;;;2.10;;
55493;SDS011;41355;50.390;19.096;2022-09-09T15:56:26;4.75;;;2.00;;
55493;SDS011;41355;50.390;19.096;2022-09-09T15:58:53;5.32;;;1.98;;
55493;SDS011;41355;50.390;19.096;2022-09-09T16:01:20;4.65;;;1.90;;
55493;SDS011;41355;50.390;19.096;2022-09-09T16:03:46;5.35;;;2.08;;
55493;SDS011;41355;50.390;19.096;2022-09-09T16:06:15;4.80;;;2.13;;
55493;SDS011;41355;50.390;19.096;2022-09-09T16:08:43;4.90;;;2.00;;
55493;SDS011;41355;50.390;19.096;2022-09-09T16:13:36;6.50;;;2.15;;
55493;SDS011;41355;50.390;19.096;2022-09-09T16:16:03;7.80;;;1.80;;